sensor_id;sensor_type;location;lat;lon;timestamp;P1;durP1;ratioP1;P2;durP2;ratioP2
51718;SDS011;37795;53.236;5.704;2023-04-07T00:00:57;29.80;;;26.73;;
51718;SDS011;37795;53.236;5.704;2023-04-07T00:03:23;31.23;;;27.97;;
51718;SDS011;37795;53.236;5.704;2023-04-07T00:05:48;30.07;;;26.87;;
51718;SDS011;37795;53.236;5.704;2023-04-07T00:08:14;31.67;;;28.50;;
51718;SDS011;37795;53.236;5.704;2023-04-07T00:10:40;33.87;;;29.00;;
51718;SDS011;37795;53.236;5.704;2023-04-07T00:13:06;30.53;;;27.30;;
51718;SDS011;37795;53.236;5.704;2023-04-07T00:15:31;31.00;;;27.93;;
51718;SDS011;37795;53.236;5.704;2023-04-07T00:17:57;32.10;;;28.80;;
51718;SDS011;37795;53.236;5.704;2023-04-07T00:20:23;30.90;;;26.57;;
51718;SDS011;37795;53.236;5.704;2023-04-07T00:22:49;29.63;;;26.73;;
51718;SDS011;37795;53.236;5.704;2023-04-07T00:25:14;29.00;;;25.93;;
51718;SDS011;37795;53.236;5.704;2023-04-07T00:27:40;28.97;;;26.03;;
51718;SDS011;37795;53.236;5.704;2023-04-07T00:30:06;29.83;;;26.97;;
51718;SDS011;37795;53.236;5.704;2023-04-07T00:32:32;30.75;;;27.85;;
51718;SDS011;37795;53.236;5.704;2023-04-07T00:34:58;30.83;;;27.70;;
51718;SDS011;37795;53.236;5.704;2023-04-07T00:37:23;28.93;;;26.07;;
51718;SDS011;37795;53.236;5.704;2023-04-07T00:39:49;29.43;;;26.53;;
51718;SDS011;37795;53.236;5.704;2023-04-07T00:42:16;29.13;;;26.23;;
51718;SDS011;37795;53.236;5.704;2023-04-07T00:44:42;30.25;;;27.23;;
51718;SDS011;37795;53.236;5.704;2023-04-07T00:47:08;31.43;;;28.07;;
51718;SDS011;37795;53.236;5.704;2023-04-07T00:49:35;32.80;;;29.60;;
51718;SDS011;37795;53.236;5.704;2023-04-07T00:52:01;29.60;;;26.70;;
51718;SDS011;37795;53.236;5.704;2023-04-07T00:54:29;31.60;;;28.45;;
51718;SDS011;37795;53.236;5.704;2023-04-07T00:56:55;34.95;;;30.02;;
51718;SDS011;37795;53.236;5.704;2023-04-07T01:01:54;28.02;;;25.15;;
51718;SDS011;37795;53.236;5.704;2023-04-07T01:04:34;31.90;;;28.63;;
51718;SDS011;37795;53.236;5.704;2023-04-07T01:07:08;30.23;;;27.45;;
51718;SDS011;37795;53.236;5.704;2023-04-07T01:09:41;30.48;;;27.27;;
51718;SDS011;37795;53.236;5.704;2023-04-07T01:12:17;32.35;;;28.95;;
51718;SDS011;37795;53.236;5.704;2023-04-07T01:14:59;32.20;;;28.87;;
51718;SDS011;37795;53.236;5.704;2023-04-07T01:17:31;29.88;;;26.63;;
51718;SDS011;37795;53.236;5.704;2023-04-07T01:20:00;31.27;;;28.05;;
51718;SDS011;37795;53.236;5.704;2023-04-07T01:22:36;31.33;;;28.05;;
51718;SDS011;37795;53.236;5.704;2023-04-07T01:30:48;31.27;;;28.08;;
51718;SDS011;37795;53.236;5.704;2023-04-07T01:33:16;30.52;;;27.42;;
51718;SDS011;37795;53.236;5.704;2023-04-07T01:35:43;28.67;;;25.77;;
51718;SDS011;37795;53.236;5.704;2023-04-07T01:38:10;30.10;;;27.15;;
51718;SDS011;37795;53.236;5.704;2023-04-07T01:40:37;30.27;;;27.02;;
51718;SDS011;37795;53.236;5.704;2023-04-07T01:43:04;32.17;;;28.40;;
51718;SDS011;37795;53.236;5.704;2023-04-07T01:45:31;30.98;;;27.58;;
51718;SDS011;37795;53.236;5.704;2023-04-07T01:47:59;28.25;;;25.42;;
51718;SDS011;37795;53.236;5.704;2023-04-07T01:50:25;27.53;;;24.53;;
51718;SDS011;37795;53.236;5.704;2023-04-07T01:52:52;28.83;;;25.67;;
51718;SDS011;37795;53.236;5.704;2023-04-07T01:55:18;31.60;;;26.13;;
51718;SDS011;37795;53.236;5.704;2023-04-07T02:00:10;33.30;;;29.70;;
51718;SDS011;37795;53.236;5.704;2023-04-07T02:02:38;34.08;;;29.58;;
51718;SDS011;37795;53.236;5.704;2023-04-07T02:05:08;33.53;;;29.95;;
51718;SDS011;37795;53.236;5.704;2023-04-07T02:07:55;32.80;;;29.30;;
51718;SDS011;37795;53.236;5.704;2023-04-07T02:10:25;31.85;;;28.75;;
51718;SDS011;37795;53.236;5.704;2023-04-07T02:12:53;30.80;;;27.70;;
51718;SDS011;37795;53.236;5.704;2023-04-07T02:15:21;34.58;;;30.98;;
51718;SDS011;37795;53.236;5.704;2023-04-07T02:17:50;30.00;;;26.55;;
51718;SDS011;37795;53.236;5.704;2023-04-07T02:20:19;30.60;;;27.30;;
51718;SDS011;37795;53.236;5.704;2023-04-07T02:22:45;29.50;;;26.35;;
51718;SDS011;37795;53.236;5.704;2023-04-07T02:25:21;29.70;;;26.20;;
51718;SDS011;37795;53.236;5.704;2023-04-07T02:27:48;29.98;;;26.27;;
51718;SDS011;37795;53.236;5.704;2023-04-07T02:30:14;28.20;;;25.20;;
51718;SDS011;37795;53.236;5.704;2023-04-07T02:32:40;27.70;;;24.73;;
51718;SDS011;37795;53.236;5.704;2023-04-07T02:35:06;27.37;;;24.37;;
51718;SDS011;37795;53.236;5.704;2023-04-07T02:37:32;25.30;;;22.70;;
51718;SDS011;37795;53.236;5.704;2023-04-07T02:39:57;30.90;;;24.70;;
51718;SDS011;37795;53.236;5.704;2023-04-07T02:42:23;25.80;;;23.23;;
51718;SDS011;37795;53.236;5.704;2023-04-07T02:44:49;24.30;;;20.93;;
51718;SDS011;37795;53.236;5.704;2023-04-07T02:47:15;25.67;;;21.77;;
51718;SDS011;37795;53.236;5.704;2023-04-07T02:49:41;25.67;;;21.63;;
51718;SDS011;37795;53.236;5.704;2023-04-07T02:52:06;26.43;;;23.30;;
51718;SDS011;37795;53.236;5.704;2023-04-07T02:54:32;25.37;;;22.77;;
51718;SDS011;37795;53.236;5.704;2023-04-07T02:56:58;25.97;;;23.07;;
51718;SDS011;37795;53.236;5.704;2023-04-07T02:59:23;26.20;;;23.40;;
51718;SDS011;37795;53.236;5.704;2023-04-07T03:01:49;29.43;;;25.73;;
51718;SDS011;37795;53.236;5.704;2023-04-07T03:04:15;26.73;;;23.73;;
51718;SDS011;37795;53.236;5.704;2023-04-07T03:06:41;27.08;;;23.58;;
51718;SDS011;37795;53.236;5.704;2023-04-07T03:09:07;32.67;;;24.37;;
51718;SDS011;37795;53.236;5.704;2023-04-07T03:11:32;24.70;;;22.07;;
51718;SDS011;37795;53.236;5.704;2023-04-07T03:13:58;22.23;;;19.07;;
51718;SDS011;37795;53.236;5.704;2023-04-07T03:16:24;22.20;;;19.97;;
51718;SDS011;37795;53.236;5.704;2023-04-07T03:18:49;23.57;;;18.57;;
51718;SDS011;37795;53.236;5.704;2023-04-07T03:21:15;22.83;;;18.20;;
51718;SDS011;37795;53.236;5.704;2023-04-07T03:23:41;24.33;;;17.57;;
51718;SDS011;37795;53.236;5.704;2023-04-07T03:26:06;30.20;;;17.03;;
51718;SDS011;37795;53.236;5.704;2023-04-07T03:28:32;21.40;;;16.20;;
51718;SDS011;37795;53.236;5.704;2023-04-07T03:30:58;27.00;;;16.67;;
51718;SDS011;37795;53.236;5.704;2023-04-07T03:33:23;26.33;;;16.30;;
51718;SDS011;37795;53.236;5.704;2023-04-07T03:35:49;26.20;;;15.60;;
51718;SDS011;37795;53.236;5.704;2023-04-07T03:38:15;18.63;;;16.43;;
51718;SDS011;37795;53.236;5.704;2023-04-07T03:40:41;19.67;;;16.10;;
51718;SDS011;37795;53.236;5.704;2023-04-07T03:43:06;24.33;;;16.87;;
51718;SDS011;37795;53.236;5.704;2023-04-07T03:45:38;22.95;;;15.93;;
51718;SDS011;37795;53.236;5.704;2023-04-07T03:48:04;29.15;;;17.90;;
51718;SDS011;37795;53.236;5.704;2023-04-07T03:50:30;31.57;;;17.53;;
51718;SDS011;37795;53.236;5.704;2023-04-07T03:52:55;41.33;;;19.40;;
51718;SDS011;37795;53.236;5.704;2023-04-07T03:55:21;33.80;;;17.60;;
51718;SDS011;37795;53.236;5.704;2023-04-07T03:57:47;42.53;;;18.97;;
51718;SDS011;37795;53.236;5.704;2023-04-07T04:00:13;33.43;;;17.67;;
51718;SDS011;37795;53.236;5.704;2023-04-07T04:02:38;37.87;;;18.50;;
51718;SDS011;37795;53.236;5.704;2023-04-07T04:05:04;35.73;;;19.30;;
51718;SDS011;37795;53.236;5.704;2023-04-07T04:07:30;35.70;;;19.67;;
51718;SDS011;37795;53.236;5.704;2023-04-07T04:09:57;39.25;;;19.38;;
51718;SDS011;37795;53.236;5.704;2023-04-07T04:12:23;34.23;;;19.93;;
51718;SDS011;37795;53.236;5.704;2023-04-07T04:14:49;26.50;;;19.40;;
51718;SDS011;37795;53.236;5.704;2023-04-07T04:17:14;45.00;;;20.33;;
51718;SDS011;37795;53.236;5.704;2023-04-07T04:19:40;31.03;;;19.03;;
51718;SDS011;37795;53.236;5.704;2023-04-07T04:22:06;33.63;;;20.43;;
51718;SDS011;37795;53.236;5.704;2023-04-07T04:24:31;32.97;;;20.20;;
51718;SDS011;37795;53.236;5.704;2023-04-07T04:26:57;30.47;;;24.07;;
51718;SDS011;37795;53.236;5.704;2023-04-07T04:29:23;33.63;;;22.63;;
51718;SDS011;37795;53.236;5.704;2023-04-07T04:31:49;42.17;;;24.17;;
51718;SDS011;37795;53.236;5.704;2023-04-07T04:34:15;39.63;;;23.87;;
51718;SDS011;37795;53.236;5.704;2023-04-07T04:36:41;33.72;;;22.63;;
51718;SDS011;37795;53.236;5.704;2023-04-07T04:39:07;45.03;;;23.60;;
51718;SDS011;37795;53.236;5.704;2023-04-07T04:41:33;33.80;;;23.30;;
51718;SDS011;37795;53.236;5.704;2023-04-07T04:43:58;35.77;;;25.30;;
51718;SDS011;37795;53.236;5.704;2023-04-07T04:46:24;32.23;;;25.60;;
51718;SDS011;37795;53.236;5.704;2023-04-07T04:48:50;27.70;;;24.20;;
51718;SDS011;37795;53.236;5.704;2023-04-07T04:51:16;33.67;;;26.38;;
51718;SDS011;37795;53.236;5.704;2023-04-07T04:53:42;33.10;;;25.77;;
51718;SDS011;37795;53.236;5.704;2023-04-07T04:56:08;30.20;;;23.50;;
51718;SDS011;37795;53.236;5.704;2023-04-07T04:58:34;28.57;;;25.23;;
51718;SDS011;37795;53.236;5.704;2023-04-07T05:01:00;26.83;;;23.85;;
51718;SDS011;37795;53.236;5.704;2023-04-07T05:03:27;32.13;;;25.43;;
51718;SDS011;37795;53.236;5.704;2023-04-07T05:05:52;29.25;;;25.08;;
51718;SDS011;37795;53.236;5.704;2023-04-07T05:08:18;31.10;;;24.20;;
51718;SDS011;37795;53.236;5.704;2023-04-07T05:10:45;29.20;;;24.30;;
51718;SDS011;37795;53.236;5.704;2023-04-07T05:13:11;29.48;;;23.98;;
51718;SDS011;37795;53.236;5.704;2023-04-07T05:15:36;32.07;;;25.17;;
51718;SDS011;37795;53.236;5.704;2023-04-07T05:18:02;30.90;;;23.37;;
51718;SDS011;37795;53.236;5.704;2023-04-07T05:20:28;29.17;;;25.57;;
51718;SDS011;37795;53.236;5.704;2023-04-07T05:22:54;30.45;;;24.02;;
51718;SDS011;37795;53.236;5.704;2023-04-07T05:25:19;31.93;;;24.23;;
51718;SDS011;37795;53.236;5.704;2023-04-07T05:27:45;34.13;;;25.70;;
51718;SDS011;37795;53.236;5.704;2023-04-07T05:30:11;34.80;;;26.27;;
51718;SDS011;37795;53.236;5.704;2023-04-07T05:32:37;30.55;;;25.27;;
51718;SDS011;37795;53.236;5.704;2023-04-07T05:35:03;32.30;;;24.00;;
51718;SDS011;37795;53.236;5.704;2023-04-07T05:37:28;30.20;;;26.60;;
51718;SDS011;37795;53.236;5.704;2023-04-07T05:39:54;27.97;;;23.30;;
51718;SDS011;37795;53.236;5.704;2023-04-07T05:42:20;29.80;;;25.97;;
51718;SDS011;37795;53.236;5.704;2023-04-07T05:44:46;28.43;;;24.47;;
51718;SDS011;37795;53.236;5.704;2023-04-07T05:47:11;26.77;;;24.03;;
51718;SDS011;37795;53.236;5.704;2023-04-07T05:49:37;34.10;;;23.83;;
51718;SDS011;37795;53.236;5.704;2023-04-07T05:52:10;36.90;;;26.30;;
51718;SDS011;37795;53.236;5.704;2023-04-07T05:54:36;28.88;;;25.35;;
51718;SDS011;37795;53.236;5.704;2023-04-07T05:57:04;29.85;;;24.85;;
51718;SDS011;37795;53.236;5.704;2023-04-07T05:59:30;36.95;;;24.10;;
51718;SDS011;37795;53.236;5.704;2023-04-07T06:01:56;27.90;;;25.07;;
51718;SDS011;37795;53.236;5.704;2023-04-07T06:04:21;28.17;;;22.10;;
51718;SDS011;37795;53.236;5.704;2023-04-07T06:06:47;29.70;;;26.70;;
51718;SDS011;37795;53.236;5.704;2023-04-07T06:09:13;27.87;;;25.00;;
51718;SDS011;37795;53.236;5.704;2023-04-07T06:11:38;32.90;;;25.40;;
51718;SDS011;37795;53.236;5.704;2023-04-07T06:14:04;30.50;;;25.77;;
51718;SDS011;37795;53.236;5.704;2023-04-07T06:16:30;25.53;;;23.13;;
51718;SDS011;37795;53.236;5.704;2023-04-07T06:18:55;27.00;;;24.23;;
51718;SDS011;37795;53.236;5.704;2023-04-07T06:21:21;28.10;;;24.83;;
51718;SDS011;37795;53.236;5.704;2023-04-07T06:23:47;29.27;;;25.77;;
51718;SDS011;37795;53.236;5.704;2023-04-07T06:26:13;29.77;;;26.60;;
51718;SDS011;37795;53.236;5.704;2023-04-07T06:28:38;30.80;;;25.77;;
51718;SDS011;37795;53.236;5.704;2023-04-07T06:31:04;31.13;;;27.93;;
51718;SDS011;37795;53.236;5.704;2023-04-07T06:33:31;29.52;;;26.08;;
51718;SDS011;37795;53.236;5.704;2023-04-07T06:35:56;27.40;;;24.73;;
51718;SDS011;37795;53.236;5.704;2023-04-07T06:38:22;29.30;;;26.13;;
51718;SDS011;37795;53.236;5.704;2023-04-07T06:40:48;24.83;;;22.27;;
51718;SDS011;37795;53.236;5.704;2023-04-07T06:43:14;25.65;;;22.75;;
51718;SDS011;37795;53.236;5.704;2023-04-07T06:45:40;23.80;;;21.20;;
51718;SDS011;37795;53.236;5.704;2023-04-07T06:48:06;23.83;;;21.40;;
51718;SDS011;37795;53.236;5.704;2023-04-07T06:56:57;21.55;;;19.33;;
51718;SDS011;37795;53.236;5.704;2023-04-07T06:59:23;21.60;;;19.43;;
51718;SDS011;37795;53.236;5.704;2023-04-07T07:01:49;23.30;;;21.17;;
51718;SDS011;37795;53.236;5.704;2023-04-07T07:04:14;22.17;;;19.87;;
51718;SDS011;37795;53.236;5.704;2023-04-07T07:06:40;20.47;;;18.23;;
51718;SDS011;37795;53.236;5.704;2023-04-07T07:09:06;22.60;;;20.37;;
51718;SDS011;37795;53.236;5.704;2023-04-07T07:11:31;22.77;;;20.57;;
51718;SDS011;37795;53.236;5.704;2023-04-07T07:13:57;22.53;;;18.30;;
51718;SDS011;37795;53.236;5.704;2023-04-07T07:16:23;20.47;;;18.33;;
51718;SDS011;37795;53.236;5.704;2023-04-07T07:18:49;19.87;;;18.00;;
51718;SDS011;37795;53.236;5.704;2023-04-07T07:21:16;20.40;;;18.48;;
51718;SDS011;37795;53.236;5.704;2023-04-07T07:23:42;17.88;;;16.08;;
51718;SDS011;37795;53.236;5.704;2023-04-07T07:26:08;21.97;;;18.53;;
51718;SDS011;37795;53.236;5.704;2023-04-07T07:28:34;19.93;;;17.93;;
51718;SDS011;37795;53.236;5.704;2023-04-07T07:31:00;21.73;;;18.47;;
51718;SDS011;37795;53.236;5.704;2023-04-07T07:33:34;19.25;;;16.60;;
51718;SDS011;37795;53.236;5.704;2023-04-07T07:35:59;18.73;;;16.80;;
51718;SDS011;37795;53.236;5.704;2023-04-07T07:38:25;18.87;;;16.90;;
51718;SDS011;37795;53.236;5.704;2023-04-07T07:40:51;16.97;;;15.30;;
51718;SDS011;37795;53.236;5.704;2023-04-07T07:43:17;16.03;;;14.27;;
51718;SDS011;37795;53.236;5.704;2023-04-07T07:45:43;17.27;;;15.63;;
51718;SDS011;37795;53.236;5.704;2023-04-07T07:48:09;17.23;;;15.47;;
51718;SDS011;37795;53.236;5.704;2023-04-07T07:50:34;17.17;;;15.47;;
51718;SDS011;37795;53.236;5.704;2023-04-07T07:53:00;17.48;;;15.70;;
51718;SDS011;37795;53.236;5.704;2023-04-07T07:55:26;17.27;;;15.27;;
51718;SDS011;37795;53.236;5.704;2023-04-07T07:57:52;19.73;;;14.97;;
51718;SDS011;37795;53.236;5.704;2023-04-07T08:00:18;18.10;;;16.17;;
51718;SDS011;37795;53.236;5.704;2023-04-07T08:02:43;17.03;;;15.43;;
51718;SDS011;37795;53.236;5.704;2023-04-07T08:05:09;17.50;;;15.77;;
51718;SDS011;37795;53.236;5.704;2023-04-07T08:07:35;17.00;;;15.40;;
51718;SDS011;37795;53.236;5.704;2023-04-07T08:10:01;18.80;;;15.95;;
51718;SDS011;37795;53.236;5.704;2023-04-07T08:12:27;17.57;;;15.77;;
51718;SDS011;37795;53.236;5.704;2023-04-07T08:14:53;19.37;;;16.33;;
51718;SDS011;37795;53.236;5.704;2023-04-07T08:17:19;17.13;;;15.43;;
51718;SDS011;37795;53.236;5.704;2023-04-07T08:19:45;14.93;;;13.47;;
51718;SDS011;37795;53.236;5.704;2023-04-07T08:22:10;16.30;;;14.70;;
51718;SDS011;37795;53.236;5.704;2023-04-07T08:24:36;15.97;;;14.37;;
51718;SDS011;37795;53.236;5.704;2023-04-07T08:27:02;16.63;;;14.90;;
51718;SDS011;37795;53.236;5.704;2023-04-07T08:29:27;15.43;;;14.00;;
51718;SDS011;37795;53.236;5.704;2023-04-07T08:31:53;16.77;;;15.03;;
51718;SDS011;37795;53.236;5.704;2023-04-07T08:34:19;15.27;;;13.90;;
51718;SDS011;37795;53.236;5.704;2023-04-07T08:36:45;14.63;;;13.17;;
51718;SDS011;37795;53.236;5.704;2023-04-07T08:39:11;14.65;;;13.15;;
51718;SDS011;37795;53.236;5.704;2023-04-07T08:41:37;15.47;;;13.90;;
51718;SDS011;37795;53.236;5.704;2023-04-07T08:44:08;15.88;;;14.32;;
51718;SDS011;37795;53.236;5.704;2023-04-07T08:46:36;16.00;;;14.18;;
51718;SDS011;37795;53.236;5.704;2023-04-07T08:49:03;16.30;;;14.60;;
51718;SDS011;37795;53.236;5.704;2023-04-07T08:51:34;14.98;;;13.68;;
51718;SDS011;37795;53.236;5.704;2023-04-07T08:54:08;20.38;;;16.55;;
51718;SDS011;37795;53.236;5.704;2023-04-07T08:56:39;17.58;;;15.73;;
51718;SDS011;37795;53.236;5.704;2023-04-07T08:59:06;17.65;;;15.95;;
51718;SDS011;37795;53.236;5.704;2023-04-07T09:01:34;16.10;;;14.43;;
51718;SDS011;37795;53.236;5.704;2023-04-07T09:04:01;17.80;;;16.00;;
51718;SDS011;37795;53.236;5.704;2023-04-07T09:06:30;16.25;;;14.65;;
51718;SDS011;37795;53.236;5.704;2023-04-07T09:08:57;16.25;;;14.73;;
51718;SDS011;37795;53.236;5.704;2023-04-07T09:11:23;15.13;;;13.63;;
51718;SDS011;37795;53.236;5.704;2023-04-07T09:16:15;15.25;;;13.82;;
51718;SDS011;37795;53.236;5.704;2023-04-07T09:18:42;16.85;;;15.20;;
51718;SDS011;37795;53.236;5.704;2023-04-07T09:21:07;15.68;;;14.27;;
51718;SDS011;37795;53.236;5.704;2023-04-07T09:23:35;16.67;;;15.00;;
51718;SDS011;37795;53.236;5.704;2023-04-07T09:28:43;17.77;;;16.02;;
51718;SDS011;37795;53.236;5.704;2023-04-07T09:31:10;19.23;;;17.42;;
51718;SDS011;37795;53.236;5.704;2023-04-07T09:33:35;19.33;;;17.37;;
51718;SDS011;37795;53.236;5.704;2023-04-07T09:36:02;19.20;;;17.17;;
51718;SDS011;37795;53.236;5.704;2023-04-07T09:38:35;20.42;;;18.30;;
51718;SDS011;37795;53.236;5.704;2023-04-07T09:41:06;22.35;;;19.27;;
51718;SDS011;37795;53.236;5.704;2023-04-07T09:43:38;20.92;;;18.73;;
51718;SDS011;37795;53.236;5.704;2023-04-07T09:46:07;22.73;;;20.38;;
51718;SDS011;37795;53.236;5.704;2023-04-07T09:48:33;22.45;;;20.05;;
51718;SDS011;37795;53.236;5.704;2023-04-07T09:51:06;19.70;;;17.80;;
51718;SDS011;37795;53.236;5.704;2023-04-07T09:53:40;20.38;;;18.38;;
51718;SDS011;37795;53.236;5.704;2023-04-07T09:56:14;20.20;;;18.13;;
51718;SDS011;37795;53.236;5.704;2023-04-07T09:58:43;20.50;;;18.50;;
51718;SDS011;37795;53.236;5.704;2023-04-07T10:01:10;19.30;;;17.40;;
51718;SDS011;37795;53.236;5.704;2023-04-07T10:03:38;19.00;;;17.00;;
51718;SDS011;37795;53.236;5.704;2023-04-07T10:06:04;17.48;;;15.88;;
51718;SDS011;37795;53.236;5.704;2023-04-07T10:08:31;21.42;;;17.70;;
51718;SDS011;37795;53.236;5.704;2023-04-07T10:11:00;17.13;;;15.43;;
51718;SDS011;37795;53.236;5.704;2023-04-07T10:13:29;18.20;;;15.45;;
51718;SDS011;37795;53.236;5.704;2023-04-07T10:15:59;16.48;;;14.77;;
51718;SDS011;37795;53.236;5.704;2023-04-07T10:18:34;17.17;;;15.48;;
51718;SDS011;37795;53.236;5.704;2023-04-07T10:21:05;13.43;;;12.10;;
51718;SDS011;37795;53.236;5.704;2023-04-07T10:26:25;16.10;;;14.60;;
51718;SDS011;37795;53.236;5.704;2023-04-07T10:28:56;16.85;;;14.00;;
51718;SDS011;37795;53.236;5.704;2023-04-07T10:31:25;15.80;;;14.30;;
51718;SDS011;37795;53.236;5.704;2023-04-07T10:33:51;15.67;;;14.00;;
51718;SDS011;37795;53.236;5.704;2023-04-07T10:36:18;16.38;;;14.65;;
51718;SDS011;37795;53.236;5.704;2023-04-07T10:44:00;16.65;;;12.60;;
51718;SDS011;37795;53.236;5.704;2023-04-07T10:49:16;12.73;;;11.57;;
51718;SDS011;37795;53.236;5.704;2023-04-07T10:59:29;14.77;;;13.10;;
51718;SDS011;37795;53.236;5.704;2023-04-07T11:04:41;12.73;;;11.60;;
51718;SDS011;37795;53.236;5.704;2023-04-07T11:07:11;13.02;;;11.85;;
51718;SDS011;37795;53.236;5.704;2023-04-07T11:09:39;12.73;;;11.45;;
51718;SDS011;37795;53.236;5.704;2023-04-07T11:12:04;12.77;;;11.57;;
51718;SDS011;37795;53.236;5.704;2023-04-07T11:14:31;12.27;;;10.97;;
51718;SDS011;37795;53.236;5.704;2023-04-07T11:16:58;12.25;;;10.75;;
51718;SDS011;37795;53.236;5.704;2023-04-07T11:19:27;11.93;;;10.75;;
51718;SDS011;37795;53.236;5.704;2023-04-07T11:27:13;12.32;;;10.43;;
51718;SDS011;37795;53.236;5.704;2023-04-07T11:29:39;11.57;;;10.38;;
51718;SDS011;37795;53.236;5.704;2023-04-07T11:32:06;10.93;;;9.93;;
51718;SDS011;37795;53.236;5.704;2023-04-07T11:34:32;12.52;;;11.30;;
51718;SDS011;37795;53.236;5.704;2023-04-07T11:37:17;11.38;;;10.00;;
51718;SDS011;37795;53.236;5.704;2023-04-07T11:39:43;11.15;;;10.00;;
51718;SDS011;37795;53.236;5.704;2023-04-07T11:42:11;10.85;;;9.77;;
51718;SDS011;37795;53.236;5.704;2023-04-07T11:44:44;10.37;;;9.37;;
51718;SDS011;37795;53.236;5.704;2023-04-07T11:47:10;10.27;;;9.25;;
51718;SDS011;37795;53.236;5.704;2023-04-07T11:49:43;9.03;;;8.03;;
51718;SDS011;37795;53.236;5.704;2023-04-07T11:52:09;11.15;;;8.98;;
51718;SDS011;37795;53.236;5.704;2023-04-07T11:54:41;10.00;;;9.10;;
51718;SDS011;37795;53.236;5.704;2023-04-07T11:57:08;9.20;;;8.30;;
51718;SDS011;37795;53.236;5.704;2023-04-07T11:59:36;8.68;;;7.55;;
51718;SDS011;37795;53.236;5.704;2023-04-07T12:02:03;7.28;;;6.57;;
51718;SDS011;37795;53.236;5.704;2023-04-07T12:04:28;7.97;;;7.17;;
51718;SDS011;37795;53.236;5.704;2023-04-07T12:07:05;7.50;;;6.90;;
51718;SDS011;37795;53.236;5.704;2023-04-07T12:09:35;7.18;;;6.28;;
51718;SDS011;37795;53.236;5.704;2023-04-07T12:12:02;6.78;;;6.18;;
51718;SDS011;37795;53.236;5.704;2023-04-07T12:14:30;7.35;;;6.00;;
51718;SDS011;37795;53.236;5.704;2023-04-07T12:16:56;6.07;;;5.57;;
51718;SDS011;37795;53.236;5.704;2023-04-07T12:19:25;8.77;;;7.18;;
51718;SDS011;37795;53.236;5.704;2023-04-07T12:21:53;8.07;;;7.30;;
51718;SDS011;37795;53.236;5.704;2023-04-07T12:24:20;6.70;;;6.07;;
51718;SDS011;37795;53.236;5.704;2023-04-07T12:26:46;7.35;;;6.03;;
51718;SDS011;37795;53.236;5.704;2023-04-07T12:29:12;6.63;;;5.87;;
51718;SDS011;37795;53.236;5.704;2023-04-07T12:31:38;7.00;;;5.68;;
51718;SDS011;37795;53.236;5.704;2023-04-07T12:34:03;7.20;;;6.50;;
51718;SDS011;37795;53.236;5.704;2023-04-07T12:36:29;7.53;;;6.83;;
51718;SDS011;37795;53.236;5.704;2023-04-07T12:38:55;7.03;;;6.43;;
51718;SDS011;37795;53.236;5.704;2023-04-07T12:41:21;7.50;;;6.73;;
51718;SDS011;37795;53.236;5.704;2023-04-07T12:43:48;7.63;;;6.93;;
51718;SDS011;37795;53.236;5.704;2023-04-07T12:46:14;6.87;;;6.27;;
51718;SDS011;37795;53.236;5.704;2023-04-07T12:48:39;7.07;;;6.10;;
51718;SDS011;37795;53.236;5.704;2023-04-07T12:51:05;7.00;;;6.30;;
51718;SDS011;37795;53.236;5.704;2023-04-07T12:53:31;12.37;;;8.33;;
51718;SDS011;37795;53.236;5.704;2023-04-07T12:55:57;9.13;;;8.13;;
51718;SDS011;37795;53.236;5.704;2023-04-07T12:58:23;7.50;;;6.80;;
51718;SDS011;37795;53.236;5.704;2023-04-07T13:00:50;10.10;;;8.40;;
51718;SDS011;37795;53.236;5.704;2023-04-07T13:03:17;8.98;;;8.18;;
51718;SDS011;37795;53.236;5.704;2023-04-07T13:05:43;8.67;;;7.83;;
51718;SDS011;37795;53.236;5.704;2023-04-07T13:08:09;8.93;;;8.00;;
51718;SDS011;37795;53.236;5.704;2023-04-07T13:10:35;8.57;;;7.77;;
51718;SDS011;37795;53.236;5.704;2023-04-07T13:13:00;9.20;;;8.30;;
51718;SDS011;37795;53.236;5.704;2023-04-07T13:15:26;8.33;;;7.63;;
51718;SDS011;37795;53.236;5.704;2023-04-07T13:17:53;8.90;;;8.10;;
51718;SDS011;37795;53.236;5.704;2023-04-07T13:20:19;8.55;;;7.75;;
51718;SDS011;37795;53.236;5.704;2023-04-07T13:22:45;9.18;;;8.07;;
51718;SDS011;37795;53.236;5.704;2023-04-07T13:25:12;8.18;;;7.38;;
51718;SDS011;37795;53.236;5.704;2023-04-07T13:27:38;9.95;;;8.10;;
51718;SDS011;37795;53.236;5.704;2023-04-07T13:30:03;7.83;;;7.13;;
51718;SDS011;37795;53.236;5.704;2023-04-07T13:32:30;9.90;;;6.88;;
51718;SDS011;37795;53.236;5.704;2023-04-07T13:34:55;10.40;;;8.33;;
51718;SDS011;37795;53.236;5.704;2023-04-07T13:37:21;10.73;;;8.67;;
51718;SDS011;37795;53.236;5.704;2023-04-07T13:39:47;9.60;;;7.45;;
51718;SDS011;37795;53.236;5.704;2023-04-07T13:42:13;11.47;;;7.47;;
51718;SDS011;37795;53.236;5.704;2023-04-07T13:44:41;7.40;;;6.68;;
51718;SDS011;37795;53.236;5.704;2023-04-07T13:47:12;7.57;;;6.88;;
51718;SDS011;37795;53.236;5.704;2023-04-07T13:49:43;7.20;;;6.50;;
51718;SDS011;37795;53.236;5.704;2023-04-07T13:52:13;9.43;;;7.85;;
51718;SDS011;37795;53.236;5.704;2023-04-07T13:54:39;11.02;;;7.55;;
51718;SDS011;37795;53.236;5.704;2023-04-07T13:57:05;9.35;;;7.65;;
51718;SDS011;37795;53.236;5.704;2023-04-07T13:59:31;8.73;;;7.90;;
51718;SDS011;37795;53.236;5.704;2023-04-07T14:01:56;7.30;;;6.53;;
51718;SDS011;37795;53.236;5.704;2023-04-07T14:04:22;9.33;;;8.43;;
51718;SDS011;37795;53.236;5.704;2023-04-07T14:06:48;8.57;;;7.70;;
51718;SDS011;37795;53.236;5.704;2023-04-07T14:09:14;10.33;;;8.93;;
51718;SDS011;37795;53.236;5.704;2023-04-07T14:11:39;7.27;;;6.63;;
51718;SDS011;37795;53.236;5.704;2023-04-07T14:14:06;9.80;;;8.80;;
51718;SDS011;37795;53.236;5.704;2023-04-07T14:16:32;9.45;;;7.63;;
51718;SDS011;37795;53.236;5.704;2023-04-07T14:18:57;9.27;;;7.63;;
51718;SDS011;37795;53.236;5.704;2023-04-07T14:21:23;9.63;;;8.33;;
51718;SDS011;37795;53.236;5.704;2023-04-07T14:23:49;8.17;;;7.37;;
51718;SDS011;37795;53.236;5.704;2023-04-07T14:26:15;7.88;;;6.60;;
51718;SDS011;37795;53.236;5.704;2023-04-07T14:28:41;11.90;;;10.13;;
51718;SDS011;37795;53.236;5.704;2023-04-07T14:31:10;9.20;;;8.30;;
51718;SDS011;37795;53.236;5.704;2023-04-07T14:33:37;8.68;;;7.78;;
51718;SDS011;37795;53.236;5.704;2023-04-07T14:36:02;9.03;;;7.67;;
51718;SDS011;37795;53.236;5.704;2023-04-07T14:38:28;7.33;;;6.63;;
51718;SDS011;37795;53.236;5.704;2023-04-07T14:40:54;9.43;;;8.27;;
51718;SDS011;37795;53.236;5.704;2023-04-07T14:43:20;8.25;;;6.63;;
51718;SDS011;37795;53.236;5.704;2023-04-07T14:45:46;8.70;;;7.03;;
51718;SDS011;37795;53.236;5.704;2023-04-07T14:48:12;9.97;;;8.97;;
51718;SDS011;37795;53.236;5.704;2023-04-07T14:50:37;7.33;;;6.33;;
51718;SDS011;37795;53.236;5.704;2023-04-07T14:53:04;9.20;;;8.30;;
51718;SDS011;37795;53.236;5.704;2023-04-07T14:55:30;7.90;;;7.20;;
51718;SDS011;37795;53.236;5.704;2023-04-07T14:57:56;11.03;;;9.83;;
51718;SDS011;37795;53.236;5.704;2023-04-07T15:00:22;9.77;;;8.73;;
51718;SDS011;37795;53.236;5.704;2023-04-07T15:02:50;8.88;;;7.43;;
51718;SDS011;37795;53.236;5.704;2023-04-07T15:05:18;7.63;;;6.93;;
51718;SDS011;37795;53.236;5.704;2023-04-07T15:07:46;7.43;;;6.32;;
51718;SDS011;37795;53.236;5.704;2023-04-07T15:10:15;7.47;;;6.78;;
51718;SDS011;37795;53.236;5.704;2023-04-07T15:12:44;7.07;;;6.38;;
51718;SDS011;37795;53.236;5.704;2023-04-07T15:15:15;8.10;;;6.97;;